Time;durP1;ratioP1;P1;durP2;ratioP2;P2;SDS_P1;SDS_P2;PMS_P1;PMS_P2;Temp;Humidity;BMP_temperature;BMP_pressure;BME280_temperature;BME280_humidity;BME280_pressure;Samples;Min_cycle;Max_cycle;Signal;HPM_P1;HPM_P2
2022/02/07 00:03:44;;;;;;;0.93;0.50;;;6.20;99.90;;;;;;4996132;28;20160;-82
2022/02/07 00:06:13;;;;;;;1.83;0.60;;;4.90;99.90;;;;;;4997324;28;20368;-81
2022/02/07 00:08:38;;;;;;;0.50;0.50;;;4.00;99.90;;;;;;5015454;28;20530;-82
2022/02/07 00:11:04;;;;;;;0.60;0.60;;;3.30;99.90;;;;;;5015663;28;20065;-82
2022/02/07 00:13:30;;;;;;;0.63;0.50;;;3.00;99.90;;;;;;4998467;28;20041;-82
2022/02/07 00:15:56;;;;;;;0.60;0.60;;;2.80;99.90;;;;;;5015739;28;20030;-82
2022/02/07 00:18:25;;;;;;;0.77;0.60;;;2.70;99.90;;;;;;5015141;28;20453;-82
2022/02/07 00:20:51;;;;;;;0.50;0.50;;;2.60;99.90;;;;;;5015494;28;20093;-82
2022/02/07 00:23:18;;;;;;;0.57;0.50;;;2.40;99.90;;;;;;5015156;28;20022;-82
2022/02/07 00:25:43;;;;;;;0.53;0.53;;;2.30;99.90;;;;;;5015233;28;20026;-82
2022/02/07 00:28:10;;;;;;;0.50;0.50;;;2.20;99.90;;;;;;4997511;28;20096;-82
2022/02/07 00:30:35;;;;;;;0.50;0.50;;;2.10;99.90;;;;;;5014961;28;20033;-82
2022/02/07 00:33:01;;;;;;;0.60;0.60;;;2.00;99.90;;;;;;5015297;28;20380;-82
2022/02/07 00:35:27;;;;;;;0.83;0.50;;;2.00;99.90;;;;;;5015239;28;20113;-82
2022/02/07 00:37:56;;;;;;;0.50;0.50;;;1.90;99.90;;;;;;5014702;28;20036;-81
2022/02/07 00:42:59;;;;;;;0.53;0.53;;;1.90;99.90;;;;;;5014877;28;20034;-81
2022/02/07 00:48:09;;;;;;;0.50;0.50;;;1.90;99.90;;;;;;5014747;28;20026;-82
2022/02/07 00:50:37;;;;;;;1.03;0.80;;;1.90;99.90;;;;;;5014692;28;20030;-82
2022/02/07 00:53:03;;;;;;;0.60;0.60;;;1.90;99.90;;;;;;5014882;28;20044;-82
2022/02/07 00:55:29;;;;;;;0.63;0.50;;;1.90;99.90;;;;;;5014910;28;20148;-82
2022/02/07 00:57:55;;;;;;;0.73;0.73;;;1.90;99.90;;;;;;5015301;28;20068;-82
2022/02/07 01:00:21;;;;;;;0.40;0.40;;;1.90;99.90;;;;;;5014722;28;20084;-82
2022/02/07 01:02:47;;;;;;;0.70;0.70;;;1.90;99.90;;;;;;5014908;28;20030;-82
2022/02/07 01:05:14;;;;;;;0.67;0.67;;;1.90;99.90;;;;;;5014465;28;20378;-82
2022/02/07 01:07:47;;;;;;;0.50;0.50;;;1.90;99.90;;;;;;5014640;28;20105;-81
2022/02/07 01:10:15;;;;;;;0.60;0.60;;;1.80;99.90;;;;;;5013596;28;20084;-81
2022/02/07 01:13:11;;;;;;;0.93;0.50;;;1.70;99.90;;;;;;5014235;28;20296;-81
2022/02/07 01:15:37;;;;;;;0.60;0.60;;;1.70;99.90;;;;;;5013587;28;20372;-81
2022/02/07 01:55:33;;;;;;;0.50;0.50;;;1.40;99.90;;;;;;5013977;28;20113;-82
2022/02/07 01:58:00;;;;;;;0.47;0.47;;;1.40;99.90;;;;;;5013318;28;20072;-81
2022/02/07 02:00:26;;;;;;;0.50;0.50;;;1.50;99.90;;;;;;5013355;28;20430;-81
2022/02/07 02:02:52;;;;;;;0.80;0.50;;;1.60;99.90;;;;;;4995706;28;20030;-82
2022/02/07 02:05:17;;;;;;;0.50;0.50;;;1.60;99.90;;;;;;5013758;28;20026;-81
2022/02/07 02:07:43;;;;;;;0.83;0.60;;;1.60;99.90;;;;;;5013310;28;20022;-81
2022/02/07 02:10:10;;;;;;;0.40;0.40;;;1.60;99.90;;;;;;5013471;28;20158;-82
2022/02/07 02:12:46;;;;;;;0.60;0.60;;;1.60;99.90;;;;;;5013400;28;20025;-82
2022/02/07 02:46:48;;;;;;;0.70;0.60;;;1.50;99.90;;;;;;5013228;28;20148;-82
2022/02/07 02:49:14;;;;;;;3.07;0.60;;;1.50;99.90;;;;;;5013171;28;20076;-82
2022/02/07 02:51:39;;;;;;;0.50;0.50;;;1.40;99.90;;;;;;5012894;28;20030;-83
2022/02/07 02:54:08;;;;;;;1.87;0.70;;;1.40;99.90;;;;;;5013094;28;20093;-83
2022/02/07 02:56:34;;;;;;;0.77;0.77;;;1.50;99.90;;;;;;5012801;28;20026;-82
2022/02/07 02:59:00;;;;;;;1.27;0.50;;;1.50;99.90;;;;;;5012857;28;20030;-81
2022/02/07 03:01:25;;;;;;;0.97;0.70;;;1.50;99.90;;;;;;4995209;28;20018;-81
2022/02/07 03:03:51;;;;;;;1.93;0.70;;;1.60;99.90;;;;;;4995132;28;20033;-81
2022/02/07 03:06:18;;;;;;;1.07;0.53;;;1.60;99.90;;;;;;5012617;28;20049;-82
2022/02/07 03:08:44;;;;;;;1.33;0.80;;;1.60;99.90;;;;;;5012721;28;20113;-81
2022/02/07 03:11:16;;;;;;;0.60;0.60;;;1.50;99.90;;;;;;5013020;28;20084;-81
2022/02/07 03:18:59;;;;;;;0.60;0.60;;;1.70;99.90;;;;;;5013054;28;20466;-82
2022/02/07 03:21:25;;;;;;;0.87;0.60;;;1.60;99.90;;;;;;5012496;28;20058;-81
2022/02/07 03:23:51;;;;;;;0.50;0.50;;;1.70;99.90;;;;;;5012715;28;20026;-82
2022/02/07 03:26:18;;;;;;;0.77;0.63;;;1.70;99.90;;;;;;4994776;28;20029;-81
2022/02/07 03:28:48;;;;;;;0.50;0.50;;;1.80;99.90;;;;;;5012463;28;20026;-81
2022/02/07 03:31:14;;;;;;;2.07;0.77;;;1.80;99.90;;;;;;5012257;28;20033;-81
2022/02/07 03:33:40;;;;;;;0.60;0.60;;;1.70;99.90;;;;;;5014729;28;20034;-81
2022/02/07 03:36:05;;;;;;;0.70;0.70;;;1.70;99.90;;;;;;5015646;28;20105;-82
2022/02/07 03:38:31;;;;;;;0.60;0.60;;;1.80;99.90;;;;;;4998043;28;20077;-79
2022/02/07 03:40:57;;;;;;;0.87;0.80;;;1.70;99.90;;;;;;5016359;28;20029;-79
2022/02/07 03:43:23;;;;;;;0.60;0.60;;;1.70;99.90;;;;;;5015945;28;20018;-79
2022/02/07 03:45:49;;;;;;;0.77;0.67;;;1.60;99.90;;;;;;5015782;28;20106;-79
2022/02/07 03:48:18;;;;;;;0.70;0.70;;;1.70;99.90;;;;;;5015834;28;20034;-79
2022/02/07 03:50:44;;;;;;;0.60;0.60;;;1.70;99.90;;;;;;5015881;28;20109;-79
2022/02/07 03:53:09;;;;;;;1.10;0.80;;;1.70;99.90;;;;;;5015861;28;20113;-81
2022/02/07 03:55:35;;;;;;;1.43;0.87;;;1.80;99.90;;;;;;5015677;28;20057;-81
2022/02/07 03:58:01;;;;;;;0.60;0.60;;;1.70;99.90;;;;;;5015255;28;20060;-82
2022/02/07 04:00:27;;;;;;;0.77;0.73;;;1.80;99.90;;;;;;4997456;28;20025;-82
2022/02/07 04:02:55;;;;;;;1.33;0.70;;;1.70;99.90;;;;;;5015342;28;20459;-82
2022/02/07 04:08:07;;;;;;;0.90;0.70;;;1.90;99.90;;;;;;5015361;28;20074;-82
2022/02/07 04:10:39;;;;;;;1.07;0.97;;;1.80;99.90;;;;;;5015301;28;20022;-82
2022/02/07 04:13:07;;;;;;;0.90;0.70;;;1.90;99.90;;;;;;5015078;28;20014;-82
2022/02/07 04:15:32;;;;;;;0.73;0.73;;;1.90;99.90;;;;;;5015104;28;20018;-82
2022/02/07 04:18:03;;;;;;;1.17;0.70;;;1.90;99.90;;;;;;5014944;28;20037;-82
2022/02/07 04:20:28;;;;;;;1.93;0.83;;;1.90;99.90;;;;;;4997457;28;20033;-82
2022/02/07 04:22:54;;;;;;;4.57;1.10;;;1.90;99.90;;;;;;5013815;28;20029;-82
2022/02/07 04:25:19;;;;;;;1.50;0.90;;;1.90;99.90;;;;;;5014843;28;20055;-82
2022/02/07 04:27:45;;;;;;;1.60;0.87;;;1.80;99.90;;;;;;5015038;28;20022;-81
2022/02/07 04:30:11;;;;;;;2.10;0.90;;;1.70;99.90;;;;;;4997166;28;20463;-82
2022/02/07 04:32:37;;;;;;;1.00;0.80;;;1.80;99.90;;;;;;5014858;28;20049;-83
2022/02/07 04:35:04;;;;;;;1.03;0.80;;;1.80;99.90;;;;;;5014973;28;20034;-81
2022/02/07 04:37:30;;;;;;;1.50;0.90;;;1.90;99.90;;;;;;4997206;28;20386;-81
2022/02/07 04:39:56;;;;;;;2.60;0.83;;;1.80;99.90;;;;;;5014531;28;20034;-82
2022/02/07 04:42:24;;;;;;;2.17;0.93;;;1.80;99.90;;;;;;5014703;28;20048;-82
2022/02/07 04:45:13;;;;;;;1.80;1.00;;;1.80;99.90;;;;;;5013580;28;20021;-83
2022/02/07 04:58:24;;;;;;;2.03;0.87;;;1.80;99.90;;;;;;5014101;28;20525;-82
2022/02/07 05:01:24;;;;;;;0.77;0.77;;;1.80;99.90;;;;;;4996493;28;20022;-82
2022/02/07 05:03:57;;;;;;;2.30;0.93;;;1.70;99.90;;;;;;5013925;28;20352;-82
2022/02/07 05:14:36;;;;;;;5.67;1.20;;;1.60;99.90;;;;;;5013871;28;20556;-83
2022/02/07 05:17:06;;;;;;;2.70;0.90;;;1.70;99.90;;;;;;5014202;28;20072;-88
2022/02/07 05:19:31;;;;;;;1.50;0.87;;;1.70;99.90;;;;;;4996850;28;20030;-88
2022/02/07 05:21:57;;;;;;;1.87;0.90;;;1.70;99.90;;;;;;4995290;28;20955;-88
2022/02/07 05:24:22;;;;;;;1.73;1.00;;;1.80;99.90;;;;;;5007499;28;20367;-88
2022/02/07 05:26:48;;;;;;;3.03;1.03;;;1.90;99.90;;;;;;5013901;28;21413;-85
2022/02/07 05:29:14;;;;;;;2.50;1.10;;;1.90;99.90;;;;;;4995878;28;20037;-85
2022/02/07 05:31:39;;;;;;;2.13;1.10;;;1.90;99.90;;;;;;5006387;28;20459;-84
2022/02/07 05:34:07;;;;;;;2.87;1.03;;;1.90;99.90;;;;;;5007157;28;20029;-85
2022/02/07 05:36:37;;;;;;;1.80;0.87;;;1.90;99.90;;;;;;5004248;28;20027;-84
2022/02/07 05:39:04;;;;;;;2.43;1.00;;;1.80;99.90;;;;;;5010824;28;20408;-84
2022/02/07 05:41:29;;;;;;;2.57;1.17;;;1.80;99.90;;;;;;5013381;28;20018;-84
2022/02/07 05:43:55;;;;;;;4.23;1.10;;;1.70;99.90;;;;;;5013454;28;20049;-85
2022/02/07 05:46:21;;;;;;;2.87;1.10;;;1.80;99.90;;;;;;5013372;28;20010;-84
2022/02/07 05:48:46;;;;;;;5.00;1.00;;;1.80;99.90;;;;;;5013313;28;20018;-85
2022/02/07 05:51:12;;;;;;;3.77;1.10;;;1.80;99.90;;;;;;5013425;28;20106;-85
2022/02/07 05:53:37;;;;;;;4.23;2.23;;;1.80;99.90;;;;;;5013066;28;20057;-85
2022/02/07 05:56:03;;;;;;;2.07;0.97;;;1.80;99.90;;;;;;5005747;28;20050;-85
2022/02/07 05:58:29;;;;;;;0.77;0.67;;;1.80;99.90;;;;;;5009634;28;20196;-85
2022/02/07 06:00:55;;;;;;;2.03;0.80;;;1.60;99.90;;;;;;5012788;28;20097;-84
2022/02/07 06:03:21;;;;;;;3.70;0.90;;;1.60;99.90;;;;;;5012739;28;20506;-84
2022/02/07 06:05:49;;;;;;;2.97;0.87;;;1.60;99.90;;;;;;5012567;28;20049;-86
2022/02/07 06:08:15;;;;;;;2.70;0.90;;;1.60;99.90;;;;;;5012473;28;20644;-84
2022/02/07 06:10:43;;;;;;;1.90;0.80;;;1.50;99.90;;;;;;5011120;28;20042;-84
2022/02/07 06:13:13;;;;;;;1.30;0.70;;;1.50;99.90;;;;;;5013504;28;20036;-82
2022/02/07 06:15:40;;;;;;;1.00;0.63;;;1.50;99.90;;;;;;5013594;28;20026;-79
2022/02/07 06:18:06;;;;;;;1.77;1.10;;;1.40;99.90;;;;;;5012593;28;20014;-88
2022/02/07 06:20:31;;;;;;;1.10;0.90;;;1.50;99.90;;;;;;5016746;28;20028;-94
2022/02/07 06:22:57;;;;;;;2.70;1.00;;;1.50;99.90;;;;;;4995465;28;20117;-91
2022/02/07 06:25:22;;;;;;;1.07;0.87;;;1.40;99.90;;;;;;5012982;28;20033;-90
2022/02/07 06:27:50;;;;;;;2.87;1.10;;;1.50;99.90;;;;;;5011189;28;20025;-93
2022/02/07 06:30:15;;;;;;;0.80;0.80;;;1.40;99.90;;;;;;4994951;28;20028;-94
2022/02/07 06:32:41;;;;;;;1.37;0.90;;;1.30;99.90;;;;;;5011409;28;20053;-82
2022/02/07 06:35:07;;;;;;;3.27;1.30;;;1.30;99.90;;;;;;5011761;28;20401;-82
2022/02/07 06:37:34;;;;;;;1.80;1.00;;;1.20;99.90;;;;;;5008165;28;20481;-81
2022/02/07 06:39:59;;;;;;;1.73;1.10;;;1.20;99.90;;;;;;4992836;28;20395;-94
2022/02/07 06:42:28;;;;;;;1.90;1.10;;;1.10;99.90;;;;;;4987117;28;20026;-82
2022/02/07 06:44:54;;;;;;;3.03;2.00;;;1.20;99.90;;;;;;4993478;28;20108;-82
2022/02/07 06:47:19;;;;;;;1.97;0.90;;;1.10;99.90;;;;;;5011623;28;20562;-82
2022/02/07 06:49:45;;;;;;;3.90;1.00;;;1.10;99.90;;;;;;5011167;28;20038;-85
2022/02/07 06:52:10;;;;;;;2.83;1.13;;;1.10;99.90;;;;;;5010377;28;20041;-85
2022/02/07 06:54:36;;;;;;;4.47;1.10;;;1.20;99.90;;;;;;5011894;28;20030;-83
2022/02/07 06:57:02;;;;;;;2.23;1.17;;;1.30;99.90;;;;;;4994284;28;20038;-82
2022/02/07 06:59:30;;;;;;;4.80;1.40;;;1.30;99.90;;;;;;5012277;28;20097;-81
2022/02/07 07:02:02;;;;;;;4.87;1.37;;;1.30;99.90;;;;;;5011208;28;20022;-85
2022/02/07 07:04:29;;;;;;;3.60;1.40;;;1.30;99.90;;;;;;5006163;28;20109;-81
2022/02/07 07:06:54;;;;;;;4.50;1.20;;;1.30;99.90;;;;;;5012768;28;20026;-81
2022/02/07 07:09:20;;;;;;;5.23;1.30;;;1.30;99.90;;;;;;4998108;28;20362;-82
2022/02/07 07:11:45;;;;;;;5.83;1.30;;;1.30;99.90;;;;;;5006031;28;20026;-81
2022/02/07 07:14:18;;;;;;;4.17;1.30;;;1.40;99.90;;;;;;5008547;28;20068;-80
2022/02/07 07:16:53;;;;;;;6.13;1.33;;;1.50;99.90;;;;;;5012528;28;20014;-81
2022/02/07 07:19:19;;;;;;;3.22;1.48;;;1.50;99.90;;;;;;5012727;28;20487;-85
2022/02/07 07:21:46;;;;;;;3.60;1.40;;;1.50;99.90;;;;;;5010895;28;20057;-86
2022/02/07 07:24:11;;;;;;;5.70;1.40;;;1.50;99.90;;;;;;5007874;28;20018;-83
2022/02/07 07:26:38;;;;;;;3.40;1.30;;;1.50;99.90;;;;;;5013408;28;20033;-84
2022/02/07 07:29:10;;;;;;;5.17;1.40;;;1.60;99.90;;;;;;5012202;28;20014;-83
2022/02/07 07:31:42;;;;;;;3.57;1.20;;;1.70;99.90;;;;;;5005544;28;20031;-84
2022/02/07 07:34:07;;;;;;;5.10;1.37;;;1.70;99.90;;;;;;5012707;28;20029;-84
2022/02/07 07:36:33;;;;;;;2.73;1.20;;;1.70;99.90;;;;;;5014054;28;20540;-85
2022/02/07 07:38:58;;;;;;;3.37;1.20;;;1.80;99.90;;;;;;5013190;28;20073;-85
2022/02/07 07:41:26;;;;;;;4.60;1.20;;;1.80;99.90;;;;;;5012135;28;20128;-85
2022/02/07 07:43:51;;;;;;;7.83;1.50;;;1.80;99.90;;;;;;5004579;28;20435;-85
2022/02/07 07:46:23;;;;;;;4.10;1.30;;;1.80;99.90;;;;;;5012011;28;20026;-85
2022/02/07 07:48:57;;;;;;;4.67;1.80;;;1.80;99.90;;;;;;4994070;28;20041;-85
2022/02/07 07:51:33;;;;;;;2.27;1.30;;;1.80;99.90;;;;;;4998403;28;20034;-85
2022/02/07 07:54:27;;;;;;;5.13;1.40;;;1.70;99.90;;;;;;5005809;28;20032;-85
2022/02/07 08:02:17;;;;;;;5.50;1.50;;;1.80;99.90;;;;;;5003944;28;20065;-82
2022/02/07 08:04:45;;;;;;;9.47;1.63;;;1.80;99.90;;;;;;5014798;28;20067;-82
2022/02/07 08:09:58;;;;;;;9.50;1.40;;;1.80;99.90;;;;;;4995186;28;20076;-82
2022/02/07 08:12:26;;;;;;;6.47;1.55;;;1.80;99.90;;;;;;4993734;28;20133;-84
2022/02/07 08:15:15;;;;;;;12.13;2.37;;;1.90;99.90;;;;;;4977768;28;20034;-91
2022/02/07 08:17:41;;;;;;;5.87;2.03;;;1.90;99.90;;;;;;4998470;28;20030;-90
2022/02/07 08:20:06;;;;;;;7.37;1.87;;;1.90;99.90;;;;;;4978914;28;20361;-81
2022/02/07 08:22:32;;;;;;;7.53;1.57;;;1.90;99.90;;;;;;4993528;28;20030;-81
2022/02/07 08:25:00;;;;;;;6.27;1.67;;;1.90;99.90;;;;;;4993556;28;20471;-80
2022/02/07 08:27:28;;;;;;;5.23;1.70;;;1.90;99.90;;;;;;4994084;28;20575;-81
2022/02/07 08:29:55;;;;;;;6.90;1.80;;;1.90;99.90;;;;;;5011231;28;20496;-85
2022/02/07 08:32:21;;;;;;;12.53;2.70;;;1.80;99.90;;;;;;5010905;28;20045;-85
2022/02/07 08:34:47;;;;;;;7.03;2.10;;;1.80;99.90;;;;;;5011366;28;20125;-82
2022/02/07 08:37:13;;;;;;;6.70;1.90;;;1.80;99.90;;;;;;5012357;28;20334;-82
2022/02/07 08:39:38;;;;;;;4.67;1.47;;;2.00;99.90;;;;;;5011791;28;20085;-82
2022/02/07 08:42:04;;;;;;;5.80;1.67;;;2.10;99.90;;;;;;5012910;28;20132;-83
2022/02/07 08:44:30;;;;;;;7.67;1.80;;;2.10;99.90;;;;;;5012440;28;20026;-82
2022/02/07 08:46:56;;;;;;;7.03;1.97;;;2.20;99.90;;;;;;5013039;28;20036;-83
2022/02/07 08:49:22;;;;;;;6.50;1.90;;;2.10;99.90;;;;;;5012511;28;20470;-82
2022/02/07 08:51:49;;;;;;;5.87;1.43;;;2.10;99.90;;;;;;5012849;28;20029;-90
2022/02/07 08:54:23;;;;;;;6.27;1.60;;;2.10;99.90;;;;;;5015057;28;20022;-91
2022/02/07 08:56:57;;;;;;;4.50;1.40;;;2.10;99.90;;;;;;5015984;28;20069;-82
2022/02/07 08:59:30;;;;;;;8.57;1.70;;;2.10;99.90;;;;;;5013636;28;20026;-82
2022/02/07 09:02:16;;;;;;;7.13;1.83;;;2.10;99.90;;;;;;4995193;28;20057;-82
2022/02/07 09:05:09;;;;;;;4.37;1.53;;;2.10;99.90;;;;;;4993818;28;20026;-82
2022/02/07 09:07:37;;;;;;;6.30;1.97;;;2.10;99.90;;;;;;4993838;28;20018;-82
2022/02/07 09:10:04;;;;;;;8.47;1.63;;;2.20;99.90;;;;;;4992101;28;20019;-82
2022/02/07 09:12:31;;;;;;;8.03;2.10;;;2.30;99.90;;;;;;4993163;28;20022;-82
2022/02/07 09:15:01;;;;;;;5.43;1.77;;;2.20;99.90;;;;;;4992511;28;20026;-82
2022/02/07 09:17:27;;;;;;;6.50;1.57;;;2.30;99.90;;;;;;4993176;28;20026;-82
2022/02/07 09:19:52;;;;;;;6.63;1.73;;;2.40;99.90;;;;;;4992721;28;20092;-81
2022/02/07 09:22:18;;;;;;;8.17;2.13;;;2.30;99.90;;;;;;4992967;28;20105;-82
2022/02/07 09:24:44;;;;;;;7.23;1.80;;;2.30;99.90;;;;;;4993087;28;20463;-82
2022/02/07 09:27:09;;;;;;;10.90;2.20;;;2.30;99.90;;;;;;4992878;28;20026;-74
2022/02/07 09:29:35;;;;;;;7.40;1.60;;;2.40;99.90;;;;;;4991597;28;20136;-82
2022/02/07 09:32:02;;;;;;;12.10;2.10;;;2.50;99.90;;;;;;4992699;28;20026;-92
2022/02/07 09:34:28;;;;;;;11.43;2.23;;;2.50;99.90;;;;;;4995020;28;20084;-91
2022/02/07 09:36:54;;;;;;;8.03;2.17;;;2.50;99.90;;;;;;4998805;28;20538;-90
2022/02/07 09:39:23;;;;;;;6.47;1.80;;;2.50;99.90;;;;;;5013560;28;20050;-89
2022/02/07 09:41:52;;;;;;;10.87;1.87;;;2.60;99.90;;;;;;5014202;28;20072;-88
2022/02/07 09:44:21;;;;;;;10.53;1.90;;;2.60;99.90;;;;;;4996892;28;20484;-84
2022/02/07 09:46:47;;;;;;;8.60;2.03;;;2.50;99.90;;;;;;4994340;28;20022;-85
2022/02/07 09:49:17;;;;;;;10.40;2.17;;;2.50;99.90;;;;;;5011946;28;20029;-85
2022/02/07 09:51:47;;;;;;;9.03;2.13;;;2.50;99.90;;;;;;4995805;28;20034;-89
2022/02/07 09:54:22;;;;;;;6.00;2.10;;;2.60;99.90;;;;;;4996786;28;20053;-90
2022/02/07 09:56:49;;;;;;;12.70;2.27;;;2.50;99.90;;;;;;5014011;28;20025;-90
2022/02/07 09:59:16;;;;;;;9.90;3.23;;;2.40;99.90;;;;;;5013867;28;20022;-91
2022/02/07 10:01:46;;;;;;;5.33;2.10;;;2.40;99.90;;;;;;4995224;28;20022;-91
2022/02/07 10:04:23;;;;;;;13.63;1.97;;;2.40;99.90;;;;;;4994378;28;20105;-90
2022/02/07 10:06:57;;;;;;;6.97;2.17;;;2.40;99.90;;;;;;4993835;28;20046;-90
2022/02/07 10:12:09;;;;;;;12.32;2.10;;;2.50;99.90;;;;;;5010737;28;20141;-91
2022/02/07 10:44:42;;;;;;;9.10;1.77;;;2.90;99.90;;;;;;5012962;28;20030;-82
2022/02/07 10:47:18;;;;;;;9.97;2.67;;;2.90;99.90;;;;;;4995157;28;20018;-82
2022/02/07 10:50:00;;;;;;;7.33;1.80;;;3.00;99.90;;;;;;5012241;28;20052;-82
2022/02/07 10:52:28;;;;;;;10.07;2.23;;;3.00;99.90;;;;;;4994802;28;20489;-82
2022/02/07 10:54:54;;;;;;;7.10;1.90;;;3.00;99.90;;;;;;5012409;28;20040;-79
2022/02/07 10:57:20;;;;;;;10.93;2.40;;;3.10;99.90;;;;;;5012425;28;20030;-78
2022/02/07 10:59:48;;;;;;;7.20;1.87;;;3.10;99.90;;;;;;5010525;28;20022;-79
2022/02/07 11:05:03;;;;;;;5.30;2.00;;;3.10;99.90;;;;;;4994498;28;20028;-82
2022/02/07 11:07:32;;;;;;;8.03;1.87;;;3.00;99.90;;;;;;4995248;28;20038;-82
2022/02/07 11:13:10;;;;;;;5.23;2.10;;;2.90;99.90;;;;;;5016091;28;20069;-82
2022/02/07 11:15:34;;;;;;;11.82;2.10;;;2.90;99.90;;;;;;5015309;28;20085;-82
2022/02/07 11:18:30;;;;;;;9.73;3.03;;;2.90;99.90;;;;;;5015839;28;20049;-82
2022/02/07 11:21:21;;;;;;;4.78;1.50;;;2.90;99.90;;;;;;5016056;28;20137;-82
2022/02/07 11:24:21;;;;;;;8.40;2.87;;;2.80;99.90;;;;;;5015696;28;20033;-81
2022/02/07 11:26:49;;;;;;;10.20;2.20;;;2.80;99.90;;;;;;5015668;28;20096;-82
2022/02/07 11:29:35;;;;;;;8.20;1.93;;;2.80;99.90;;;;;;5014096;28;20379;-83
2022/02/07 11:32:01;;;;;;;5.85;1.90;;;2.70;99.90;;;;;;4993330;28;20026;-82
2022/02/07 11:34:41;;;;;;;9.60;2.93;;;2.80;99.90;;;;;;4994916;28;20080;-83
2022/02/07 11:37:23;;;;;;;7.37;1.90;;;2.70;99.90;;;;;;5013512;28;20024;-82
2022/02/07 11:39:50;;;;;;;6.87;2.10;;;2.70;99.90;;;;;;5013669;28;20387;-78
2022/02/07 11:42:16;;;;;;;7.50;1.90;;;2.70;99.90;;;;;;5013989;28;20037;-78
2022/02/07 11:44:45;;;;;;;4.87;2.03;;;2.70;99.90;;;;;;5013967;28;20050;-78
2022/02/07 11:47:32;;;;;;;7.77;1.97;;;2.80;99.90;;;;;;5014425;28;20014;-78
2022/02/07 11:50:03;;;;;;;9.63;2.13;;;2.90;99.90;;;;;;5014103;28;20022;-82
2022/02/07 11:52:42;;;;;;;9.13;1.93;;;2.90;99.90;;;;;;4995474;28;20030;-82
2022/02/07 11:55:24;;;;;;;7.20;2.03;;;3.00;99.90;;;;;;5008725;28;20045;-81
2022/02/07 11:58:06;;;;;;;7.07;2.03;;;3.00;99.90;;;;;;5001960;28;20144;-81
2022/02/07 12:00:34;;;;;;;6.57;1.97;;;3.00;99.90;;;;;;5014391;28;20034;-81
2022/02/07 12:03:06;;;;;;;6.73;2.03;;;3.00;99.90;;;;;;5014721;28;20352;-81
2022/02/07 12:05:32;;;;;;;9.13;2.07;;;3.10;99.90;;;;;;5012813;28;20022;-81
2022/02/07 12:08:13;;;;;;;7.93;2.30;;;3.10;99.90;;;;;;5013053;28;20037;-81
2022/02/07 12:11:06;;;;;;;9.67;2.00;;;3.10;99.90;;;;;;5011872;28;20026;-82
2022/02/07 12:13:38;;;;;;;6.43;2.33;;;3.10;99.90;;;;;;5011273;28;20366;-81
2022/02/07 12:16:16;;;;;;;9.40;2.10;;;3.20;99.90;;;;;;5010274;28;20014;-81
2022/02/07 12:18:57;;;;;;;4.57;1.50;;;3.20;99.90;;;;;;5010802;28;20084;-81
2022/02/07 12:21:26;;;;;;;6.53;1.93;;;3.20;99.90;;;;;;4993637;28;20116;-81
2022/02/07 12:23:57;;;;;;;8.80;1.87;;;3.30;99.90;;;;;;5011123;28;20025;-81
2022/02/07 12:26:23;;;;;;;5.93;1.70;;;3.30;99.90;;;;;;5011845;28;20029;-81
2022/02/07 12:28:57;;;;;;;9.07;1.80;;;3.30;99.90;;;;;;4993593;28;20334;-81
2022/02/07 12:31:24;;;;;;;6.37;1.90;;;3.30;99.90;;;;;;5010163;28;20026;-81
2022/02/07 12:34:03;;;;;;;5.90;2.23;;;3.40;99.90;;;;;;5010668;28;20109;-81
2022/02/07 12:36:32;;;;;;;8.00;2.47;;;3.60;99.90;;;;;;5011501;28;20022;-81
2022/02/07 12:38:59;;;;;;;11.67;2.20;;;3.50;99.90;;;;;;5011473;28;20487;-81
2022/02/07 12:41:26;;;;;;;7.77;2.07;;;3.50;99.90;;;;;;5011403;28;20044;-81
2022/02/07 12:43:54;;;;;;;5.83;1.70;;;3.40;99.90;;;;;;5011390;28;20484;-81
2022/02/07 12:46:23;;;;;;;7.60;2.53;;;3.40;99.90;;;;;;5011988;28;20052;-81
2022/02/07 12:48:58;;;;;;;5.63;2.00;;;3.50;99.90;;;;;;5011218;28;20022;-81
2022/02/07 12:51:27;;;;;;;7.05;2.53;;;3.40;99.90;;;;;;4994018;28;20482;-81
2022/02/07 12:53:53;;;;;;;6.20;1.87;;;3.50;99.90;;;;;;5011706;28;20044;-76
2022/02/07 12:56:21;;;;;;;6.30;1.90;;;3.40;99.90;;;;;;4992757;28;20129;-77
2022/02/07 12:58:50;;;;;;;7.23;1.70;;;3.40;99.90;;;;;;5009404;28;20034;-78
2022/02/07 13:01:18;;;;;;;9.20;2.10;;;3.30;99.90;;;;;;5002700;28;20544;-77
2022/02/07 13:03:51;;;;;;;6.47;2.00;;;3.20;99.90;;;;;;5005093;28;20022;-77
2022/02/07 13:06:16;;;;;;;9.70;2.10;;;3.20;99.90;;;;;;5011246;28;20057;-76
2022/02/07 13:08:44;;;;;;;5.63;1.90;;;3.20;99.90;;;;;;5013085;28;20462;-77
2022/02/07 13:11:23;;;;;;;9.60;2.20;;;3.20;99.90;;;;;;5011888;28;20402;-77
2022/02/07 13:13:50;;;;;;;7.20;2.63;;;3.20;99.90;;;;;;4994379;28;20442;-77
2022/02/07 13:16:16;;;;;;;8.67;2.27;;;3.20;99.90;;;;;;5012152;28;20030;-77
2022/02/07 13:18:42;;;;;;;7.63;2.00;;;3.20;99.90;;;;;;5010136;28;20096;-81
2022/02/07 13:21:12;;;;;;;6.00;2.20;;;3.10;99.90;;;;;;5010676;28;20030;-77
2022/02/07 13:23:40;;;;;;;6.90;1.80;;;3.20;99.90;;;;;;5012228;28;20057;-77
2022/02/07 13:26:08;;;;;;;9.57;2.20;;;3.20;99.90;;;;;;5012266;28;20022;-77
2022/02/07 13:28:38;;;;;;;7.20;1.87;;;3.20;99.90;;;;;;5012078;28;20030;-77
2022/02/07 13:31:06;;;;;;;3.80;1.67;;;3.10;99.90;;;;;;5012680;28;20041;-81
2022/02/07 13:33:47;;;;;;;9.47;2.30;;;3.20;99.90;;;;;;5012912;28;20061;-81
2022/02/07 13:36:12;;;;;;;9.47;2.27;;;3.30;99.90;;;;;;4992738;28;20520;-80
2022/02/07 13:38:38;;;;;;;8.43;2.20;;;3.30;99.90;;;;;;5011459;28;20154;-81
2022/02/07 13:41:04;;;;;;;10.70;2.67;;;3.30;99.90;;;;;;5009189;28;20107;-81
2022/02/07 13:43:31;;;;;;;7.37;1.90;;;3.30;99.90;;;;;;5009576;28;20030;-77
2022/02/07 13:45:58;;;;;;;7.23;1.80;;;3.30;99.90;;;;;;5011280;28;20022;-81
2022/02/07 13:48:26;;;;;;;11.70;1.93;;;3.30;99.90;;;;;;5008418;28;20517;-77
2022/02/07 13:50:54;;;;;;;7.53;2.27;;;3.30;99.90;;;;;;4988785;28;20034;-77
2022/02/07 13:53:21;;;;;;;10.33;2.30;;;3.30;99.90;;;;;;5008603;28;20034;-77
2022/02/07 13:55:52;;;;;;;12.03;2.17;;;3.20;99.90;;;;;;5009302;28;20478;-77
2022/02/07 13:58:33;;;;;;;8.20;1.80;;;3.20;99.90;;;;;;5009098;28;20041;-80
2022/02/07 14:01:02;;;;;;;8.20;2.10;;;3.10;99.90;;;;;;5012529;28;20033;-80
2022/02/07 14:03:31;;;;;;;9.13;2.40;;;3.20;99.90;;;;;;5012323;28;20113;-80
2022/02/07 14:06:09;;;;;;;7.43;2.13;;;3.20;99.90;;;;;;5012181;28;20026;-81
2022/02/07 14:08:38;;;;;;;4.17;1.73;;;3.20;99.90;;;;;;5011640;28;20052;-81
2022/02/07 14:11:07;;;;;;;10.33;2.57;;;3.20;99.90;;;;;;4993548;28;20076;-80
2022/02/07 14:13:33;;;;;;;8.43;1.70;;;3.10;99.90;;;;;;5012084;28;20029;-80
2022/02/07 14:15:59;;;;;;;9.80;1.80;;;3.20;99.90;;;;;;5011724;28;20042;-81
2022/02/07 14:18:26;;;;;;;14.20;3.00;;;3.20;99.90;;;;;;5011472;28;20116;-80
2022/02/07 14:20:53;;;;;;;10.17;2.20;;;3.30;99.90;;;;;;4999077;28;20018;-81
2022/02/07 14:23:20;;;;;;;8.73;2.47;;;3.20;99.90;;;;;;4994303;28;20049;-80
2022/02/07 14:25:50;;;;;;;6.83;1.90;;;3.30;99.90;;;;;;5011995;28;20022;-80
2022/02/07 14:28:17;;;;;;;14.23;2.67;;;3.30;99.90;;;;;;5011885;28;20451;-80
2022/02/07 14:30:43;;;;;;;9.97;1.70;;;3.20;99.90;;;;;;4998921;28;20026;-80
2022/02/07 14:33:09;;;;;;;12.97;2.20;;;3.30;99.90;;;;;;4992530;28;20034;-80
2022/02/07 14:35:35;;;;;;;10.40;2.03;;;3.20;99.90;;;;;;4997512;28;20518;-81
2022/02/07 14:38:05;;;;;;;8.07;1.90;;;3.30;99.90;;;;;;5007142;28;20058;-81
2022/02/07 14:40:32;;;;;;;9.30;2.00;;;3.20;99.90;;;;;;5011131;28;20113;-82
2022/02/07 14:43:00;;;;;;;11.37;2.70;;;3.20;99.90;;;;;;5010754;28;20456;-80
2022/02/07 14:45:31;;;;;;;8.47;1.87;;;3.10;99.90;;;;;;5011374;28;20041;-79
2022/02/07 14:48:01;;;;;;;5.50;1.70;;;3.20;99.90;;;;;;5010820;28;20018;-80
2022/02/07 14:50:27;;;;;;;10.97;2.33;;;3.20;99.90;;;;;;5010669;28;20025;-80
2022/02/07 14:52:53;;;;;;;6.53;1.90;;;3.20;99.90;;;;;;5010775;28;20029;-80
2022/02/07 14:55:21;;;;;;;8.33;2.23;;;3.10;99.90;;;;;;5010844;28;20053;-80
2022/02/07 14:57:47;;;;;;;8.27;1.80;;;3.10;99.90;;;;;;5009815;28;20042;-80
2022/02/07 15:00:19;;;;;;;11.53;2.17;;;3.10;99.90;;;;;;5008853;28;20077;-79
2022/02/07 15:02:46;;;;;;;8.27;2.50;;;3.10;99.90;;;;;;5004496;28;20022;-80
2022/02/07 15:05:12;;;;;;;4.90;2.00;;;3.20;99.90;;;;;;5009215;28;20064;-80
2022/02/07 15:07:38;;;;;;;7.27;2.00;;;3.20;99.90;;;;;;5010302;28;20044;-80
2022/02/07 15:10:05;;;;;;;7.60;2.30;;;3.10;99.90;;;;;;5009966;28;20110;-80
2022/02/07 15:12:31;;;;;;;5.17;1.90;;;3.10;99.90;;;;;;5010626;28;20078;-80
2022/02/07 15:14:58;;;;;;;7.30;1.90;;;3.10;99.90;;;;;;5010361;28;20077;-80
2022/02/07 15:17:28;;;;;;;6.03;1.93;;;3.10;99.90;;;;;;5009435;28;20034;-81
2022/02/07 15:19:58;;;;;;;5.80;1.73;;;3.00;99.90;;;;;;5008173;28;20080;-81
2022/02/07 15:22:25;;;;;;;6.20;2.07;;;3.00;99.90;;;;;;5009844;28;20029;-78
2022/02/07 15:24:52;;;;;;;6.70;1.77;;;3.10;99.90;;;;;;5009028;28;20525;-82
2022/02/07 15:27:18;;;;;;;9.27;2.73;;;3.00;99.90;;;;;;5007871;28;20034;-81
2022/02/07 15:29:44;;;;;;;7.87;2.30;;;2.90;99.90;;;;;;5010525;28;20854;-81
2022/02/07 15:32:29;;;;;;;8.10;2.93;;;2.90;99.90;;;;;;5012642;28;20030;-77
2022/02/07 15:35:00;;;;;;;9.13;2.92;;;2.80;99.90;;;;;;5010176;28;20030;-81